createdAt,value
2023-02-24T00:00:38.577Z,7.08
2023-02-24T00:03:11.723Z,7.21
2023-02-24T00:05:44.579Z,6.94
2023-02-24T00:08:14.014Z,6.99
2023-02-24T00:10:42.285Z,6.99
2023-02-24T00:13:12.195Z,7.10
2023-02-24T00:15:40.329Z,7.01
2023-02-24T00:18:09.410Z,6.99
2023-02-24T00:20:37.474Z,7.07
2023-02-24T00:23:05.545Z,7.14
2023-02-24T00:25:35.118Z,7.13
2023-02-24T00:28:03.820Z,7.16
2023-02-24T00:30:33.246Z,7.23
2023-02-24T00:33:04.033Z,7.27
2023-02-24T00:35:32.255Z,7.25
2023-02-24T00:38:01.085Z,7.19
2023-02-24T00:40:30.922Z,7.38
2023-02-24T00:43:00.398Z,7.42
2023-02-24T00:45:31.032Z,7.34
2023-02-24T00:47:59.456Z,7.28
2023-02-24T00:50:27.625Z,7.11
2023-02-24T00:52:55.673Z,7.25
2023-02-24T00:55:23.917Z,7.35
2023-02-24T00:57:52.087Z,7.28
2023-02-24T01:00:23.515Z,7.29
2023-02-24T01:02:51.568Z,7.24
2023-02-24T01:05:20.087Z,7.23
2023-02-24T01:07:48.133Z,7.37
2023-02-24T01:10:18.488Z,7.39
2023-02-24T01:12:54.034Z,7.27
2023-02-24T01:15:24.384Z,7.06
2023-02-24T01:17:52.486Z,7.13
2023-02-24T01:20:20.848Z,6.99
2023-02-24T01:22:51.005Z,6.96
2023-02-24T01:25:20.876Z,6.99
2023-02-24T01:27:49.705Z,7.08
2023-02-24T01:30:18.884Z,6.90
2023-02-24T01:32:49.152Z,6.60
2023-02-24T01:35:18.120Z,6.73
2023-02-24T01:37:46.554Z,6.86
2023-02-24T01:40:21.484Z,7.01
2023-02-24T01:42:50.658Z,6.80
2023-02-24T01:45:22.863Z,6.47
2023-02-24T01:47:53.490Z,6.69
2023-02-24T01:50:26.439Z,6.79
2023-02-24T01:52:59.063Z,6.69
2023-02-24T01:55:32.243Z,6.53
2023-02-24T01:58:05.030Z,6.77
2023-02-24T02:00:37.839Z,6.63
2023-02-24T02:03:13.330Z,6.66
2023-02-24T02:05:45.465Z,6.56
2023-02-24T02:08:15.127Z,6.65
2023-02-24T02:10:45.521Z,6.44
2023-02-24T02:13:15.888Z,6.63
2023-02-24T02:15:53.883Z,6.72
2023-02-24T02:18:33.661Z,6.69
2023-02-24T02:21:24.945Z,6.75
2023-02-24T02:24:00.653Z,6.34
2023-02-24T02:26:53.783Z,6.60
2023-02-24T02:29:38.125Z,6.56
2023-02-24T02:32:32.331Z,6.56
2023-02-24T02:35:09.531Z,6.62
2023-02-24T02:37:46.245Z,6.69
2023-02-24T02:40:23.469Z,6.73
2023-02-24T02:42:59.417Z,6.72
2023-02-24T02:45:33.467Z,6.61
2023-02-24T02:48:06.617Z,6.59
2023-02-24T02:50:43.497Z,6.61
2023-02-24T02:53:15.845Z,6.64
2023-02-24T02:55:48.664Z,6.45
2023-02-24T02:58:23.658Z,6.30
2023-02-24T03:01:02.776Z,6.47
2023-02-24T03:03:33.836Z,6.51
2023-02-24T03:06:06.684Z,6.39
2023-02-24T03:08:38.863Z,6.53
2023-02-24T03:11:10.953Z,6.41
2023-02-24T03:13:42.673Z,6.53
2023-02-24T03:16:14.008Z,6.58
2023-02-24T03:18:51.049Z,6.57
2023-02-24T03:21:33.110Z,6.38
2023-02-24T03:24:05.819Z,6.46
2023-02-24T03:26:41.983Z,6.45
2023-02-24T03:29:17.594Z,6.42
2023-02-24T03:31:49.217Z,6.41
2023-02-24T03:34:21.885Z,6.46
2023-02-24T03:36:53.268Z,6.45
2023-02-24T03:39:22.135Z,6.42
2023-02-24T03:41:56.918Z,6.37
2023-02-24T03:44:25.664Z,6.35
2023-02-24T03:46:55.845Z,6.42
2023-02-24T03:49:25.506Z,6.44
2023-02-24T03:52:08.893Z,6.40
2023-02-24T03:55:06.380Z,6.25
2023-02-24T03:57:55.025Z,6.34
2023-02-24T04:00:34.407Z,6.25
2023-02-24T04:03:15.416Z,6.30
2023-02-24T04:05:48.602Z,6.17
2023-02-24T04:08:20.681Z,6.17
2023-02-24T04:10:54.510Z,6.17
2023-02-24T04:13:35.439Z,6.14
2023-02-24T04:16:11.367Z,6.21
2023-02-24T04:18:41.668Z,6.26
2023-02-24T04:21:09.919Z,6.27
2023-02-24T04:23:43.782Z,6.11
2023-02-24T04:26:17.288Z,6.17
2023-02-24T04:28:48.645Z,6.15
2023-02-24T04:31:21.249Z,5.94
2023-02-24T04:33:50.590Z,6.08
2023-02-24T04:36:19.199Z,6.05
2023-02-24T04:38:49.820Z,6.02
2023-02-24T04:41:21.963Z,6.08
2023-02-24T04:43:51.145Z,6.00
2023-02-24T04:46:19.719Z,5.95
2023-02-24T04:48:48.481Z,5.90
2023-02-24T04:51:16.976Z,5.92
2023-02-24T04:53:45.311Z,5.65
2023-02-24T04:56:14.807Z,5.87
2023-02-24T04:58:45.465Z,5.96
2023-02-24T05:01:13.691Z,5.98
2023-02-24T05:03:43.671Z,6.00
2023-02-24T05:06:18.132Z,5.97
2023-02-24T05:08:46.575Z,5.83
2023-02-24T05:11:18.610Z,5.37
2023-02-24T05:13:47.272Z,5.19
2023-02-24T05:16:17.646Z,5.28
2023-02-24T05:18:46.001Z,5.45
2023-02-24T05:21:32.854Z,5.87
2023-02-24T05:24:06.949Z,5.98
2023-02-24T05:26:37.572Z,5.91
2023-02-24T05:29:07.331Z,6.12
2023-02-24T05:31:37.206Z,6.24
2023-02-24T05:34:07.812Z,6.27
2023-02-24T05:36:39.110Z,6.29
2023-02-24T05:39:08.152Z,6.31
2023-02-24T05:41:41.382Z,6.25
2023-02-24T05:44:12.795Z,6.20
2023-02-24T05:46:42.198Z,6.16
2023-02-24T05:49:14.801Z,6.35
2023-02-24T05:51:54.870Z,6.33
2023-02-24T05:54:25.958Z,6.29
2023-02-24T05:56:57.105Z,6.42
2023-02-24T05:59:25.480Z,6.25
2023-02-24T06:01:54.341Z,6.20
2023-02-24T06:04:39.401Z,6.49
2023-02-24T06:07:13.011Z,6.62
2023-02-24T06:09:42.962Z,6.54
2023-02-24T06:12:14.932Z,6.65
2023-02-24T06:14:45.163Z,6.70
2023-02-24T06:17:15.220Z,6.83
2023-02-24T06:19:43.853Z,6.82
2023-02-24T06:22:14.992Z,7.05
2023-02-24T06:24:44.492Z,7.21
2023-02-24T06:27:18.011Z,7.23
2023-02-24T06:29:49.942Z,7.20
2023-02-24T06:32:19.132Z,7.16
2023-02-24T06:34:47.561Z,7.10
2023-02-24T06:37:16.691Z,7.27
2023-02-24T06:39:44.988Z,7.47
2023-02-24T06:42:15.032Z,7.57
2023-02-24T06:44:43.233Z,7.39
2023-02-24T06:47:14.266Z,7.29
2023-02-24T06:49:43.055Z,7.40
2023-02-24T06:52:18.690Z,7.48
2023-02-24T06:54:49.113Z,7.61
2023-02-24T06:57:20.515Z,7.61
2023-02-24T06:59:49.118Z,7.73
2023-02-24T07:02:18.081Z,7.79
2023-02-24T07:04:46.605Z,7.79
2023-02-24T07:07:17.542Z,7.77
2023-02-24T07:09:46.174Z,7.83
2023-02-24T07:12:21.129Z,7.97
2023-02-24T07:14:51.370Z,7.89
2023-02-24T07:17:21.049Z,8.00
2023-02-24T07:19:49.010Z,8.19
2023-02-24T07:22:25.265Z,8.25
2023-02-24T07:25:00.596Z,8.32
2023-02-24T07:27:28.883Z,8.40
2023-02-24T07:29:59.351Z,8.48
2023-02-24T07:32:28.115Z,8.49
2023-02-24T07:34:56.091Z,8.54
2023-02-24T07:37:24.520Z,8.50
2023-02-24T07:39:52.969Z,8.60
2023-02-24T07:42:21.385Z,8.60
2023-02-24T07:44:49.641Z,8.62
2023-02-24T07:47:19.022Z,8.75
2023-02-24T07:49:47.037Z,8.88
2023-02-24T07:52:16.301Z,8.85
2023-02-24T07:54:44.437Z,8.88
2023-02-24T07:57:14.406Z,8.75
2023-02-24T07:59:47.795Z,8.90
2023-02-24T08:02:16.609Z,8.97
2023-02-24T08:04:50.508Z,9.13
2023-02-24T08:07:25.008Z,9.28
2023-02-24T08:10:14.603Z,9.41
2023-02-24T08:12:47.690Z,9.32
2023-02-24T08:15:22.303Z,9.38
2023-02-24T08:17:50.442Z,9.38
2023-02-24T08:20:25.208Z,9.39
2023-02-24T08:22:54.553Z,9.34
2023-02-24T08:25:24.343Z,9.53
2023-02-24T08:28:07.254Z,9.63
2023-02-24T08:30:40.302Z,9.72
2023-02-24T08:33:11.057Z,9.81
2023-02-24T08:35:45.003Z,9.86
2023-02-24T08:38:20.189Z,9.96
2023-02-24T08:40:51.602Z,9.79
2023-02-24T08:43:33.066Z,9.91
2023-02-24T08:46:04.520Z,10.07
2023-02-24T08:48:38.374Z,10.22
2023-02-24T08:51:24.450Z,10.25
2023-02-24T08:53:54.667Z,10.31
2023-02-24T08:56:27.923Z,10.37
2023-02-24T08:59:05.773Z,10.40
2023-02-24T09:01:36.154Z,10.43
2023-02-24T09:04:07.412Z,10.45
2023-02-24T09:06:44.298Z,10.33
2023-02-24T09:09:21.431Z,10.28
2023-02-24T09:11:56.123Z,10.08
2023-02-24T09:14:28.569Z,10.14
2023-02-24T09:17:06.449Z,10.17
2023-02-24T09:20:01.850Z,10.14
2023-02-24T09:22:32.234Z,10.20
2023-02-24T09:25:24.218Z,10.23
2023-02-24T09:27:57.214Z,10.10
2023-02-24T09:30:38.333Z,10.16
2023-02-24T09:33:22.511Z,10.31
2023-02-24T09:36:09.709Z,10.17
2023-02-24T09:39:10.907Z,9.95
2023-02-24T09:41:56.717Z,9.99
2023-02-24T09:44:29.969Z,10.03
2023-02-24T09:47:09.269Z,9.98
2023-02-24T09:49:48.802Z,9.87
2023-02-24T09:52:19.422Z,9.87
2023-02-24T09:55:08.358Z,9.82
2023-02-24T09:58:02.388Z,9.83
2023-02-24T10:00:35.067Z,9.81
2023-02-24T10:03:19.767Z,9.84
2023-02-24T10:05:59.157Z,9.85
2023-02-24T10:08:34.067Z,9.85
2023-02-24T10:11:08.632Z,9.69
2023-02-24T10:13:42.883Z,9.79
2023-02-24T10:16:13.182Z,9.83
2023-02-24T10:18:48.457Z,9.80
2023-02-24T10:21:30.940Z,9.71
2023-02-24T10:24:15.608Z,9.59
2023-02-24T10:27:00.813Z,9.63
2023-02-24T10:29:55.637Z,9.52
2023-02-24T10:32:34.134Z,9.61
2023-02-24T10:35:03.556Z,9.65
2023-02-24T10:37:31.648Z,9.67
2023-02-24T10:40:01.239Z,9.75
2023-02-24T10:42:34.462Z,9.83
2023-02-24T10:45:17.972Z,9.81
2023-02-24T10:47:57.135Z,9.75
2023-02-24T10:50:28.119Z,9.79
2023-02-24T10:53:26.616Z,9.71
2023-02-24T10:56:15.201Z,9.73
2023-02-24T10:58:56.915Z,9.81
2023-02-24T11:01:43.591Z,9.76
2023-02-24T11:04:33.595Z,9.67
2023-02-24T11:07:09.797Z,9.82
2023-02-24T11:09:44.196Z,9.97
2023-02-24T11:12:38.335Z,10.04
2023-02-24T11:15:36.959Z,9.80
2023-02-24T11:18:07.031Z,10.02
2023-02-24T11:20:48.622Z,9.93
2023-02-24T11:23:20.535Z,9.50
2023-02-24T11:25:53.651Z,9.70
2023-02-24T11:28:44.665Z,9.96
2023-02-24T11:31:29.700Z,10.10
2023-02-24T11:34:05.528Z,10.16
2023-02-24T11:36:43.509Z,10.30
2023-02-24T11:39:36.514Z,10.39
2023-02-24T11:42:11.422Z,10.49
2023-02-24T11:44:49.286Z,10.71
2023-02-24T11:47:23.320Z,10.76
2023-02-24T11:49:55.331Z,10.80
2023-02-24T11:52:31.062Z,10.96
2023-02-24T11:55:01.076Z,10.66
2023-02-24T11:57:37.745Z,10.57
2023-02-24T12:00:13.469Z,10.50
2023-02-24T12:02:51.279Z,10.62
2023-02-24T12:05:22.512Z,10.55
2023-02-24T12:07:53.724Z,10.55
2023-02-24T12:10:25.334Z,10.71
2023-02-24T12:13:05.238Z,10.67
2023-02-24T12:15:39.185Z,10.80
2023-02-24T12:18:17.877Z,10.87
2023-02-24T12:20:50.342Z,10.87
2023-02-24T12:23:24.364Z,10.94
2023-02-24T12:26:06.349Z,10.95
2023-02-24T12:28:57.835Z,10.88
2023-02-24T12:31:37.660Z,10.96
2023-02-24T12:34:14.569Z,11.06
2023-02-24T12:37:01.061Z,11.14
2023-02-24T12:39:32.306Z,11.18
2023-02-24T12:42:08.856Z,11.14
2023-02-24T12:44:48.125Z,11.09
2023-02-24T12:47:23.982Z,11.05
2023-02-24T12:50:09.123Z,10.99
2023-02-24T12:52:48.992Z,11.06
2023-02-24T12:55:24.796Z,11.06
2023-02-24T12:58:01.231Z,11.12
2023-02-24T13:00:38.004Z,11.23
2023-02-24T13:03:20.902Z,11.22
2023-02-24T13:06:01.150Z,11.31
2023-02-24T13:08:42.412Z,11.30
2023-02-24T13:11:19.694Z,11.24
2023-02-24T13:13:56.498Z,11.12
2023-02-24T13:16:31.616Z,11.23
2023-02-24T13:19:20.278Z,11.30
2023-02-24T13:22:09.825Z,11.36
2023-02-24T13:24:38.921Z,11.12
2023-02-24T13:27:17.428Z,11.22
2023-02-24T13:29:47.027Z,11.06
2023-02-24T13:32:33.622Z,11.09
2023-02-24T13:35:04.162Z,11.27
2023-02-24T13:37:36.743Z,11.44
2023-02-24T13:40:24.018Z,11.18
2023-02-24T13:43:01.560Z,11.42
2023-02-24T13:45:31.776Z,11.18
2023-02-24T13:48:41.756Z,11.33
2023-02-24T13:51:26.494Z,11.31
2023-02-24T13:54:08.603Z,11.52
2023-02-24T13:56:44.874Z,11.49
2023-02-24T13:59:40.621Z,11.56
2023-02-24T14:02:16.740Z,11.61
2023-02-24T14:04:50.233Z,11.60
2023-02-24T14:07:22.570Z,11.50
2023-02-24T14:09:55.402Z,11.44
2023-02-24T14:12:28.785Z,11.51
2023-02-24T14:14:57.646Z,11.53
2023-02-24T14:17:28.864Z,11.43
2023-02-24T14:20:09.064Z,11.43
2023-02-24T14:22:44.819Z,11.51
2023-02-24T14:25:15.879Z,11.58
2023-02-24T14:27:45.814Z,11.59
2023-02-24T14:30:25.287Z,11.59
2023-02-24T14:32:53.876Z,11.64
2023-02-24T14:35:34.308Z,11.60
2023-02-24T14:38:02.648Z,11.49
2023-02-24T14:40:32.330Z,11.56
2023-02-24T14:43:00.503Z,11.57
2023-02-24T14:45:30.988Z,11.60
2023-02-24T14:47:59.092Z,11.53
2023-02-24T14:50:31.341Z,11.58
2023-02-24T14:53:03.667Z,11.50
2023-02-24T14:55:37.211Z,11.47
2023-02-24T14:58:12.888Z,11.46
2023-02-24T15:00:47.111Z,11.17
2023-02-24T15:03:21.170Z,11.03
2023-02-24T15:05:51.268Z,11.07
2023-02-24T15:08:32.677Z,11.03
2023-02-24T15:11:07.877Z,11.07
2023-02-24T15:13:39.408Z,11.10
2023-02-24T15:16:13.756Z,11.08
2023-02-24T15:18:42.537Z,11.07
2023-02-24T15:21:22.422Z,11.00
2023-02-24T15:23:51.178Z,11.05
2023-02-24T15:26:28.737Z,10.94
2023-02-24T15:29:02.036Z,10.98
2023-02-24T15:31:31.398Z,10.95
2023-02-24T15:34:01.621Z,10.85
2023-02-24T15:36:33.316Z,10.85
2023-02-24T15:39:05.112Z,10.75
2023-02-24T15:41:42.561Z,10.75
2023-02-24T15:44:26.444Z,10.71
2023-02-24T15:46:54.982Z,10.57
2023-02-24T15:49:22.996Z,10.54
2023-02-24T15:51:53.001Z,10.49
2023-02-24T15:54:29.292Z,10.45
2023-02-24T15:57:00.793Z,10.39
2023-02-24T15:59:29.518Z,10.27
2023-02-24T16:01:57.662Z,10.21
2023-02-24T16:04:27.641Z,10.20
2023-02-24T16:06:59.050Z,10.20
2023-02-24T16:09:33.620Z,10.16
2023-02-24T16:12:06.875Z,10.07
2023-02-24T16:14:35.207Z,9.37
2023-02-24T16:17:08.956Z,9.61
2023-02-24T16:19:37.425Z,9.61
2023-02-24T16:22:05.417Z,9.65
2023-02-24T16:24:33.488Z,9.63
2023-02-24T16:27:03.480Z,9.66
2023-02-24T16:29:31.668Z,9.72
2023-02-24T16:32:00.045Z,9.65
2023-02-24T16:34:28.182Z,9.57
2023-02-24T16:36:56.875Z,9.37
2023-02-24T16:39:25.376Z,9.26
2023-02-24T16:41:53.745Z,9.30
2023-02-24T16:44:23.772Z,9.26
2023-02-24T16:46:53.006Z,9.14
2023-02-24T16:49:22.385Z,9.14
2023-02-24T16:51:50.394Z,9.16
2023-02-24T16:54:21.954Z,9.08
2023-02-24T16:56:50.307Z,9.04
2023-02-24T16:59:18.311Z,8.97
2023-02-24T17:01:47.834Z,8.91
2023-02-24T17:04:16.065Z,8.92
2023-02-24T17:06:44.030Z,8.94
2023-02-24T17:09:15.493Z,8.97
2023-02-24T17:11:44.483Z,8.87
2023-02-24T17:14:17.102Z,8.78
2023-02-24T17:16:45.145Z,8.69
2023-02-24T17:19:15.079Z,8.62
2023-02-24T17:21:45.425Z,8.58
2023-02-24T17:24:16.880Z,8.34
2023-02-24T17:26:45.099Z,8.31
2023-02-24T17:29:14.762Z,8.32
2023-02-24T17:31:43.368Z,8.40
2023-02-24T17:34:11.883Z,8.42
2023-02-24T17:36:41.256Z,8.42
2023-02-24T17:39:09.270Z,8.25
2023-02-24T17:41:37.251Z,8.22
2023-02-24T17:44:05.283Z,8.02
2023-02-24T17:46:33.384Z,7.68
2023-02-24T17:49:03.324Z,7.79
2023-02-24T17:51:31.605Z,7.88
2023-02-24T17:54:01.108Z,7.87
2023-02-24T17:56:29.215Z,7.77
2023-02-24T17:58:59.064Z,7.69
2023-02-24T18:01:27.112Z,7.58
2023-02-24T18:03:57.516Z,7.54
2023-02-24T18:06:25.991Z,7.47
2023-02-24T18:08:54.743Z,7.38
2023-02-24T18:11:24.161Z,7.29
2023-02-24T18:13:52.846Z,7.30
2023-02-24T18:16:21.333Z,7.34
2023-02-24T18:18:50.086Z,7.24
2023-02-24T18:21:18.278Z,7.22
2023-02-24T18:23:49.210Z,7.16
2023-02-24T18:26:17.709Z,7.07
2023-02-24T18:28:47.557Z,6.88
2023-02-24T18:31:17.758Z,6.80
2023-02-24T18:33:46.789Z,6.74
2023-02-24T18:36:15.508Z,6.76
2023-02-24T18:38:44.310Z,6.68
2023-02-24T18:41:14.276Z,6.65
2023-02-24T18:43:42.886Z,6.72
2023-02-24T18:46:15.000Z,6.83
2023-02-24T18:48:44.610Z,6.84
2023-02-24T18:51:13.718Z,6.71
2023-02-24T18:53:41.824Z,6.73
2023-02-24T18:56:12.060Z,6.71
2023-02-24T18:58:40.884Z,6.76
2023-02-24T19:01:15.482Z,6.73
2023-02-24T19:03:43.922Z,6.65
2023-02-24T19:06:13.832Z,6.57
2023-02-24T19:08:42.860Z,6.48
2023-02-24T19:11:11.900Z,6.49
2023-02-24T19:13:40.120Z,6.40
2023-02-24T19:16:08.911Z,6.31
2023-02-24T19:18:38.868Z,6.30
2023-02-24T19:21:08.241Z,6.27
2023-02-24T19:23:37.253Z,6.36
2023-02-24T19:26:05.407Z,6.33
2023-02-24T19:28:33.385Z,6.21
2023-02-24T19:31:01.726Z,6.18
2023-02-24T19:33:29.671Z,6.18
2023-02-24T19:36:01.373Z,6.20
2023-02-24T19:38:29.365Z,6.18
2023-02-24T19:40:59.336Z,6.15
2023-02-24T19:43:27.323Z,6.06
2023-02-24T19:45:55.432Z,5.94
2023-02-24T19:48:23.507Z,6.00
2023-02-24T19:50:51.524Z,6.14
2023-02-24T19:53:20.894Z,6.11
2023-02-24T19:55:50.812Z,6.05
2023-02-24T19:58:19.400Z,5.91
2023-02-24T20:00:48.385Z,5.96
2023-02-24T20:03:16.616Z,5.98
2023-02-24T20:05:44.682Z,5.91
2023-02-24T20:08:12.727Z,6.07
2023-02-24T20:10:42.481Z,6.05
2023-02-24T20:13:10.564Z,6.03
2023-02-24T20:15:38.591Z,5.95
2023-02-24T20:18:08.923Z,5.89
2023-02-24T20:20:37.423Z,5.81
2023-02-24T20:23:05.880Z,5.72
2023-02-24T20:25:33.892Z,5.36
2023-02-24T20:28:04.429Z,5.48
2023-02-24T20:30:32.442Z,5.64
2023-02-24T20:33:00.539Z,5.63
2023-02-24T20:35:28.678Z,5.48
2023-02-24T20:37:56.698Z,5.53
2023-02-24T20:40:24.749Z,5.66
2023-02-24T20:42:52.796Z,5.72
2023-02-24T20:45:22.180Z,5.75
2023-02-24T20:47:50.261Z,5.69
2023-02-24T20:50:18.539Z,5.42
2023-02-24T20:52:46.770Z,5.16
2023-02-24T20:55:14.865Z,4.91
2023-02-24T20:57:42.896Z,4.78
2023-02-24T21:00:12.283Z,5.00
2023-02-24T21:02:42.375Z,5.17
2023-02-24T21:05:11.200Z,5.13
2023-02-24T21:07:40.193Z,5.07
2023-02-24T21:10:08.616Z,5.00
2023-02-24T21:12:36.682Z,5.00
2023-02-24T21:15:05.022Z,5.10
2023-02-24T21:17:34.439Z,5.27
2023-02-24T21:20:04.123Z,5.31
2023-02-24T21:22:32.375Z,5.15
2023-02-24T21:25:00.701Z,5.13
2023-02-24T21:27:28.616Z,5.24
2023-02-24T21:29:56.590Z,5.32
2023-02-24T21:32:24.742Z,5.36
2023-02-24T21:34:52.802Z,5.19
2023-02-24T21:37:22.249Z,5.15
2023-02-24T21:39:50.412Z,5.18
2023-02-24T21:42:18.379Z,5.18
2023-02-24T21:44:46.382Z,5.15
2023-02-24T21:47:14.312Z,5.15
2023-02-24T21:49:42.269Z,5.11
2023-02-24T21:52:11.690Z,4.99
2023-02-24T21:54:42.380Z,4.87
2023-02-24T21:57:10.460Z,4.87
2023-02-24T21:59:38.450Z,4.76
2023-02-24T22:02:06.719Z,4.69
2023-02-24T22:04:35.148Z,4.86
2023-02-24T22:07:03.065Z,4.95
2023-02-24T22:09:31.056Z,4.94
2023-02-24T22:12:00.672Z,5.08
2023-02-24T22:14:28.703Z,5.12
2023-02-24T22:16:56.609Z,5.06
2023-02-24T22:19:24.680Z,4.91
2023-02-24T22:21:52.822Z,4.35
2023-02-24T22:24:22.004Z,4.17
2023-02-24T22:26:51.222Z,4.36
2023-02-24T22:29:20.976Z,4.48
2023-02-24T22:31:49.846Z,4.54
2023-02-24T22:34:18.397Z,4.50
2023-02-24T22:36:46.410Z,4.38
2023-02-24T22:39:16.708Z,4.43
2023-02-24T22:41:45.653Z,4.44
2023-02-24T22:44:14.444Z,4.50
2023-02-24T22:46:43.935Z,4.44
2023-02-24T22:49:12.235Z,4.48
2023-02-24T22:51:40.617Z,4.50
2023-02-24T22:54:08.701Z,4.53
2023-02-24T22:56:38.011Z,4.56
2023-02-24T22:59:05.989Z,4.54
2023-02-24T23:01:36.463Z,4.62
2023-02-24T23:04:08.062Z,4.63
2023-02-24T23:06:37.280Z,4.45
2023-02-24T23:09:06.506Z,4.47
2023-02-24T23:11:37.671Z,3.94
2023-02-24T23:14:10.115Z,3.85
2023-02-24T23:16:39.077Z,4.18
2023-02-24T23:19:13.070Z,4.28
2023-02-24T23:21:43.163Z,4.32
2023-02-24T23:24:14.010Z,4.42
2023-02-24T23:26:44.918Z,4.49
2023-02-24T23:29:15.719Z,4.50
2023-02-24T23:31:44.361Z,4.50
2023-02-24T23:34:14.543Z,4.59
2023-02-24T23:36:44.812Z,4.39
2023-02-24T23:39:15.663Z,4.43
2023-02-24T23:41:43.893Z,4.35
2023-02-24T23:44:12.644Z,4.38
2023-02-24T23:46:41.907Z,4.37
2023-02-24T23:49:10.000Z,4.39
2023-02-24T23:51:48.021Z,4.38
2023-02-24T23:54:17.985Z,4.29
2023-02-24T23:56:46.838Z,4.14
2023-02-24T23:59:15.437Z,4.23
